Terminal Aerodrome Forecast
Issued by NWS Louisville, KY

Home | Current Version | Previous Version | Text Only | Print | Product List | Glossary On
Versions: 1 2 3 4 5 6 7 8 9 10 11 12 13 14 15 16 17 18
000
FTUS43 KLMK 231726
TAFSDF
TAF
KSDF 231726Z 2318/2424 19008KT P6SM SCT025 BKN060
      TEMPO 2318/2320 BKN025
     FM240000 17007KT P6SM SCT030 BKN100
     FM240800 19012KT P6SM SCT030 BKN100
     FM241500 19017G25KT P6SM BKN030=

USA.gov is the U.S. government's official web portal to all federal, state and local government web resources and services.